createdAt,value
2019-03-12T00:00:04.114Z,0.90
2019-03-12T00:02:32.559Z,0.60
2019-03-12T00:05:01.003Z,0.60
2019-03-12T00:07:29.473Z,0.60
2019-03-12T00:09:58.049Z,0.50
2019-03-12T00:12:26.512Z,0.50
2019-03-12T00:14:54.982Z,0.40
2019-03-12T00:17:23.427Z,0.50
2019-03-12T00:19:51.884Z,0.50
2019-03-12T00:22:20.431Z,0.50
2019-03-12T00:24:49.042Z,0.50
2019-03-12T00:27:17.508Z,0.40
2019-03-12T00:29:46.019Z,0.50
2019-03-12T00:32:14.484Z,0.60
2019-03-12T00:34:42.938Z,0.50
2019-03-12T00:37:11.390Z,0.50
2019-03-12T00:39:39.947Z,0.50
2019-03-12T00:42:08.420Z,0.50
2019-03-12T00:44:36.880Z,0.50
2019-03-12T00:47:05.321Z,0.30
2019-03-12T00:49:33.761Z,0.30
2019-03-12T00:52:02.316Z,0.30
2019-03-12T00:54:30.923Z,0.30
2019-03-12T00:56:59.375Z,0.20
2019-03-12T00:59:27.834Z,0.20
2019-03-12T01:01:56.292Z,0.20
2019-03-12T01:04:24.757Z,0.20
2019-03-12T01:06:53.264Z,0.20
2019-03-12T01:09:21.707Z,0.20
2019-03-12T01:11:50.209Z,0.20
2019-03-12T01:14:18.767Z,0.20
2019-03-12T01:16:47.326Z,0.30
2019-03-12T01:19:15.831Z,0.30
2019-03-12T01:21:44.306Z,0.40
2019-03-12T01:24:12.827Z,0.40
2019-03-12T01:26:41.286Z,0.40
2019-03-12T01:29:09.732Z,0.20
2019-03-12T01:31:38.187Z,0.00
2019-03-12T01:34:06.651Z,-0.10
2019-03-12T01:36:35.096Z,-0.10
2019-03-12T01:39:04.497Z,-0.30
2019-03-12T01:41:32.971Z,-0.30
2019-03-12T01:44:01.435Z,-0.50
2019-03-12T01:46:29.897Z,-0.70
2019-03-12T01:48:58.538Z,-0.80
2019-03-12T01:51:26.995Z,-0.80
2019-03-12T01:53:55.452Z,-0.70
2019-03-12T01:56:23.983Z,-0.60
2019-03-12T01:58:52.436Z,-0.40
2019-03-12T02:01:20.902Z,-0.40
2019-03-12T02:03:49.346Z,-0.50
2019-03-12T02:06:17.807Z,-0.30
2019-03-12T02:08:46.274Z,-0.40
2019-03-12T02:11:14.719Z,-0.30
2019-03-12T02:13:43.187Z,-0.20
2019-03-12T02:16:11.655Z,-0.20
2019-03-12T02:18:40.120Z,-0.20
2019-03-12T02:21:08.661Z,-0.30
2019-03-12T02:23:37.123Z,-0.40
2019-03-12T02:26:05.629Z,-0.50
2019-03-12T02:28:34.094Z,-0.60
2019-03-12T02:31:02.548Z,-0.60
2019-03-12T02:33:31.129Z,-0.70
2019-03-12T02:35:59.658Z,-0.70
2019-03-12T02:38:28.262Z,-0.80
2019-03-12T02:40:56.823Z,-0.90
2019-03-12T02:43:25.284Z,-1.00
2019-03-12T02:45:56.863Z,-0.90
2019-03-12T02:48:25.386Z,-0.90
2019-03-12T02:50:53.859Z,-0.90
2019-03-12T02:53:22.390Z,-1.00
2019-03-12T02:55:50.859Z,-1.00
2019-03-12T02:58:19.303Z,-1.10
2019-03-12T03:00:47.768Z,-1.00
2019-03-12T03:03:16.315Z,-0.90
2019-03-12T03:05:46.491Z,-0.60
2019-03-12T03:08:16.667Z,-0.60
2019-03-12T03:10:45.199Z,-0.50
2019-03-12T03:13:13.747Z,-0.50
2019-03-12T03:15:46.657Z,-0.50
2019-03-12T03:18:15.196Z,-0.30
2019-03-12T03:20:43.726Z,-0.30
2019-03-12T03:23:12.186Z,-0.40
2019-03-12T03:25:40.715Z,-0.50
2019-03-12T03:28:09.277Z,-0.40
2019-03-12T03:30:37.767Z,-0.50
2019-03-12T03:33:06.487Z,-0.60
2019-03-12T03:35:35.093Z,-0.20
2019-03-12T03:38:03.544Z,-0.10
2019-03-12T03:40:32.083Z,-0.10
2019-03-12T03:43:00.547Z,-0.20
2019-03-12T03:45:29.169Z,-0.10
2019-03-12T03:47:57.762Z,-0.10
2019-03-12T03:50:26.210Z,-0.20
2019-03-12T03:52:54.748Z,0.10
2019-03-12T03:55:23.662Z,0.40
2019-03-12T03:57:52.265Z,0.40
2019-03-12T04:00:22.818Z,0.40
2019-03-12T04:02:51.427Z,0.30
2019-03-12T04:05:20.100Z,0.30
2019-03-12T04:07:48.612Z,0.30
2019-03-12T04:10:17.349Z,0.20
2019-03-12T04:12:45.900Z,0.30
2019-03-12T04:15:16.516Z,0.30
2019-03-12T04:17:45.022Z,0.30
2019-03-12T04:20:16.272Z,0.30
2019-03-12T04:22:44.867Z,0.40
2019-03-12T04:25:13.388Z,0.50
2019-03-12T04:27:41.921Z,0.30
2019-03-12T04:30:18.833Z,0.10
2019-03-12T04:32:47.395Z,0.00
2019-03-12T04:35:27.735Z,0.00
2019-03-12T04:37:56.237Z,0.10
2019-03-12T04:40:24.761Z,0.00
2019-03-12T04:42:53.364Z,0.20
2019-03-12T04:45:21.886Z,0.10
2019-03-12T04:47:50.358Z,0.00
2019-03-12T04:50:19.004Z,-0.10
2019-03-12T04:52:47.515Z,-0.20
2019-03-12T04:55:16.916Z,-0.30
2019-03-12T04:57:45.431Z,-0.40
2019-03-12T05:00:19.029Z,-0.40
2019-03-12T05:02:47.551Z,-0.30
2019-03-12T05:05:16.094Z,-0.30
2019-03-12T05:07:44.630Z,-0.30
2019-03-12T05:10:17.236Z,0.00
2019-03-12T05:12:45.851Z,0.10
2019-03-12T05:15:20.635Z,0.00
2019-03-12T05:17:49.155Z,-0.10
2019-03-12T05:20:17.635Z,0.00
2019-03-12T05:22:46.123Z,-0.10
2019-03-12T05:25:15.320Z,-0.20
2019-03-12T05:27:43.992Z,-0.20
2019-03-12T05:30:17.154Z,-0.30
2019-03-12T05:32:45.803Z,-0.40
2019-03-12T05:35:14.590Z,-0.40
2019-03-12T05:37:43.224Z,0.40
2019-03-12T05:40:13.107Z,0.80
2019-03-12T05:42:41.642Z,1.30
2019-03-12T05:45:12.246Z,1.60
2019-03-12T05:47:40.760Z,1.70
2019-03-12T05:50:14.059Z,1.70
2019-03-12T05:52:42.560Z,1.60
2019-03-12T05:55:12.567Z,1.30
2019-03-12T05:57:41.010Z,1.10
2019-03-12T06:00:14.975Z,1.00
2019-03-12T06:02:43.472Z,0.90
2019-03-12T06:05:12.103Z,0.80
2019-03-12T06:07:40.546Z,0.80
2019-03-12T06:10:13.975Z,0.90
2019-03-12T06:12:42.499Z,0.90
2019-03-12T06:15:17.517Z,0.90
2019-03-12T06:17:46.152Z,1.00
2019-03-12T06:20:18.068Z,1.20
2019-03-12T06:22:46.558Z,1.40
2019-03-12T06:25:15.337Z,1.50
2019-03-12T06:27:44.024Z,1.60
2019-03-12T06:30:19.791Z,1.70
2019-03-12T06:32:49.967Z,1.90
2019-03-12T06:35:20.127Z,2.10
2019-03-12T06:37:50.291Z,2.30
2019-03-12T06:40:26.348Z,2.30
2019-03-12T06:43:02.670Z,2.50
2019-03-12T06:45:49.014Z,2.70
2019-03-12T06:48:37.451Z,2.90
2019-03-12T06:51:16.561Z,3.10
2019-03-12T06:53:55.587Z,3.20
2019-03-12T06:56:34.812Z,3.30
2019-03-12T06:59:04.987Z,3.40
2019-03-12T07:01:38.105Z,3.50
2019-03-12T07:04:08.187Z,3.60
2019-03-12T07:06:38.382Z,3.70
2019-03-12T07:09:09.610Z,3.90
2019-03-12T07:11:42.681Z,4.00
2019-03-12T07:14:30.854Z,4.10
2019-03-12T07:17:06.882Z,4.20
2019-03-12T07:19:55.287Z,4.30
2019-03-12T07:22:33.903Z,4.30
2019-03-12T07:25:04.077Z,4.50
2019-03-12T07:27:34.244Z,4.50
2019-03-12T07:30:13.084Z,4.60
2019-03-12T07:32:42.800Z,4.60
2019-03-12T07:35:15.716Z,4.70
2019-03-12T07:37:48.342Z,4.70
2019-03-12T07:40:34.882Z,4.70
2019-03-12T07:43:10.819Z,4.80
2019-03-12T07:45:46.682Z,4.80
2019-03-12T07:48:16.771Z,4.80
2019-03-12T07:50:46.944Z,5.00
2019-03-12T07:53:19.557Z,5.00
2019-03-12T07:56:01.677Z,5.10
2019-03-12T07:58:37.936Z,5.10
2019-03-12T08:01:10.779Z,5.10
2019-03-12T08:03:50.153Z,5.20
2019-03-12T08:06:20.307Z,5.20
2019-03-12T08:09:02.765Z,5.20
2019-03-12T08:11:32.867Z,5.30
2019-03-12T08:14:11.900Z,5.30
2019-03-12T08:16:54.115Z,5.40
2019-03-12T08:19:29.792Z,5.40
2019-03-12T08:21:59.936Z,5.50
2019-03-12T08:24:39.043Z,5.60
2019-03-12T08:27:15.082Z,5.70
2019-03-12T08:29:45.218Z,5.70
2019-03-12T08:32:23.739Z,5.60
2019-03-12T08:34:53.055Z,5.70
2019-03-12T08:37:29.618Z,5.90
2019-03-12T08:40:17.691Z,5.90
2019-03-12T08:42:54.821Z,5.80
2019-03-12T08:45:45.330Z,5.90
2019-03-12T08:48:15.579Z,6.00
2019-03-12T08:50:57.743Z,6.00
2019-03-12T08:53:27.843Z,6.20
2019-03-12T08:56:03.602Z,6.30
2019-03-12T08:58:42.681Z,6.50
2019-03-12T09:01:12.868Z,6.40
2019-03-12T09:03:42.963Z,6.10
2019-03-12T09:06:13.051Z,5.90
2019-03-12T09:08:48.885Z,5.80
2019-03-12T09:11:27.836Z,5.70
2019-03-12T09:14:00.874Z,5.60
2019-03-12T09:16:45.982Z,5.50
2019-03-12T09:19:25.206Z,5.90
2019-03-12T09:21:58.063Z,6.00
2019-03-12T09:24:43.131Z,6.00
2019-03-12T09:27:13.233Z,5.90
2019-03-12T09:29:48.875Z,6.00
2019-03-12T09:32:37.079Z,6.10
2019-03-12T09:35:09.603Z,6.10
2019-03-12T09:37:39.715Z,6.20
2019-03-12T09:40:14.194Z,6.30
2019-03-12T09:42:59.351Z,6.50
2019-03-12T09:45:45.672Z,6.40
2019-03-12T09:48:18.282Z,6.50
2019-03-12T09:50:54.417Z,6.70
2019-03-12T09:53:30.673Z,7.00
2019-03-12T09:56:12.840Z,7.10
2019-03-12T09:58:55.231Z,7.20
2019-03-12T10:01:34.551Z,7.20
2019-03-12T10:04:19.873Z,7.40
2019-03-12T10:07:06.499Z,7.50
2019-03-12T10:09:39.575Z,7.50
2019-03-12T10:12:12.698Z,7.60
2019-03-12T10:14:46.012Z,7.60
2019-03-12T10:17:16.588Z,7.80
2019-03-12T10:19:49.410Z,7.80
2019-03-12T10:22:22.025Z,7.60
2019-03-12T10:25:04.175Z,7.60
2019-03-12T10:27:34.340Z,7.50
2019-03-12T10:30:21.155Z,7.60
2019-03-12T10:33:09.451Z,7.60
2019-03-12T10:35:51.902Z,7.70
2019-03-12T10:39:01.660Z,7.70
2019-03-12T10:41:38.226Z,7.80
2019-03-12T10:44:11.255Z,8.00
2019-03-12T10:46:41.337Z,8.20
2019-03-12T10:49:09.943Z,8.30
2019-03-12T10:51:38.401Z,8.40
2019-03-12T10:54:07.058Z,8.10
2019-03-12T10:56:35.511Z,7.90
2019-03-12T10:59:04.030Z,7.70
2019-03-12T11:01:32.627Z,7.80
2019-03-12T11:04:01.087Z,8.00
2019-03-12T11:06:29.527Z,8.10
2019-03-12T11:08:57.990Z,8.10
2019-03-12T11:11:26.519Z,8.30
2019-03-12T11:13:54.966Z,8.30
2019-03-12T11:16:23.410Z,8.30
2019-03-12T11:18:51.873Z,8.40
2019-03-12T11:21:20.327Z,8.30
2019-03-12T11:23:48.775Z,8.30
2019-03-12T11:26:17.230Z,8.30
2019-03-12T11:28:45.690Z,8.30
2019-03-12T11:31:14.147Z,8.50
2019-03-12T11:33:42.719Z,8.70
2019-03-12T11:36:11.220Z,8.70
2019-03-12T11:38:39.696Z,8.50
2019-03-12T11:41:08.241Z,8.50
2019-03-12T11:43:36.821Z,8.40
2019-03-12T11:46:05.953Z,8.50
2019-03-12T11:48:34.542Z,8.70
2019-03-12T11:51:03.186Z,8.70
2019-03-12T11:53:31.867Z,8.60
2019-03-12T11:56:00.371Z,8.40
2019-03-12T11:58:28.946Z,8.60
2019-03-12T12:00:59.271Z,8.80
2019-03-12T12:03:27.898Z,9.00
2019-03-12T12:05:56.436Z,9.10
2019-03-12T12:08:25.022Z,9.30
2019-03-12T12:10:53.893Z,9.30
2019-03-12T12:13:22.409Z,9.30
2019-03-12T12:15:50.869Z,9.50
2019-03-12T12:18:19.467Z,9.60
2019-03-12T12:20:47.906Z,9.30
2019-03-12T12:23:16.440Z,9.20
2019-03-12T12:25:44.963Z,9.30
2019-03-12T12:28:13.423Z,9.20
2019-03-12T12:30:41.955Z,9.30
2019-03-12T12:33:10.403Z,9.40
2019-03-12T12:35:38.866Z,9.50
2019-03-12T12:38:07.311Z,9.50
2019-03-12T12:40:35.762Z,9.50
2019-03-12T12:43:04.386Z,9.50
2019-03-12T12:45:40.064Z,9.40
2019-03-12T12:48:08.604Z,8.90
2019-03-12T12:50:37.038Z,8.90
2019-03-12T12:53:05.573Z,8.90
2019-03-12T12:55:34.039Z,9.10
2019-03-12T12:58:02.597Z,9.10
2019-03-12T13:00:31.229Z,9.30
2019-03-12T13:02:59.818Z,9.30
2019-03-12T13:05:28.343Z,9.20
2019-03-12T13:07:56.787Z,9.00
2019-03-12T13:10:30.625Z,9.00
2019-03-12T13:12:59.138Z,9.00
2019-03-12T13:15:27.737Z,8.90
2019-03-12T13:17:56.248Z,8.90
2019-03-12T13:20:24.778Z,8.90
2019-03-12T13:22:53.585Z,9.10
2019-03-12T13:25:22.091Z,9.20
2019-03-12T13:27:50.552Z,8.90
2019-03-12T13:30:20.620Z,8.90
2019-03-12T13:32:49.576Z,8.90
2019-03-12T13:35:19.044Z,8.90
2019-03-12T13:37:48.424Z,8.90
2019-03-12T13:40:27.498Z,8.60
2019-03-12T13:42:56.119Z,8.60
2019-03-12T13:45:25.953Z,8.80
2019-03-12T13:47:54.578Z,8.90
2019-03-12T13:50:23.251Z,8.90
2019-03-12T13:52:51.972Z,9.00
2019-03-12T13:55:20.653Z,9.00
2019-03-12T13:57:49.270Z,8.90
2019-03-12T14:00:25.033Z,9.10
2019-03-12T14:02:53.757Z,9.10
2019-03-12T14:05:22.449Z,9.20
2019-03-12T14:07:51.054Z,9.20
2019-03-12T14:10:24.383Z,9.20
2019-03-12T14:12:53.871Z,9.30
2019-03-12T14:15:30.352Z,9.20
2019-03-12T14:17:59.236Z,9.10
2019-03-12T14:20:54.661Z,9.10
2019-03-12T14:23:34.882Z,9.10
2019-03-12T14:26:03.719Z,9.10
2019-03-12T14:28:32.293Z,9.00
2019-03-12T14:31:00.948Z,8.90
2019-03-12T14:33:30.425Z,8.90
2019-03-12T14:35:58.876Z,9.00
2019-03-12T14:38:27.542Z,9.00
2019-03-12T14:40:55.987Z,9.00
2019-03-12T14:43:24.513Z,9.10
2019-03-12T14:45:53.311Z,9.00
2019-03-12T14:48:41.785Z,9.00
2019-03-12T14:51:15.947Z,9.00
2019-03-12T14:53:47.211Z,9.10
2019-03-12T14:56:15.675Z,9.00
2019-03-12T14:58:44.183Z,9.10
2019-03-12T15:01:12.881Z,9.00
2019-03-12T15:03:41.323Z,9.10
2019-03-12T15:06:09.779Z,9.20
2019-03-12T15:08:38.231Z,9.20
2019-03-12T15:11:07.111Z,9.20
2019-03-12T15:13:35.551Z,9.30
2019-03-12T15:16:03.999Z,9.30
2019-03-12T15:18:32.810Z,9.40
2019-03-12T15:21:01.254Z,9.40
2019-03-12T15:23:29.691Z,9.30
2019-03-12T15:25:58.320Z,9.30
2019-03-12T15:28:26.782Z,9.20
2019-03-12T15:30:55.238Z,9.20
2019-03-12T15:33:23.695Z,9.20
2019-03-12T15:35:52.151Z,9.20
2019-03-12T15:38:20.612Z,9.10
2019-03-12T15:40:49.058Z,9.00
2019-03-12T15:43:17.587Z,8.90
2019-03-12T15:45:46.031Z,8.90
2019-03-12T15:48:14.503Z,8.80
2019-03-12T15:50:43.015Z,8.80
2019-03-12T15:53:11.461Z,8.70
2019-03-12T15:55:39.961Z,8.70
2019-03-12T15:58:08.436Z,8.60
2019-03-12T16:00:36.875Z,8.50
2019-03-12T16:03:05.339Z,8.50
2019-03-12T16:05:33.859Z,8.40
2019-03-12T16:08:02.387Z,8.30
2019-03-12T16:10:30.826Z,8.30
2019-03-12T16:12:59.369Z,8.20
2019-03-12T16:15:27.887Z,8.10
2019-03-12T16:17:56.411Z,8.10
2019-03-12T16:20:24.938Z,8.00
2019-03-12T16:22:53.394Z,7.90
2019-03-12T16:25:21.926Z,7.70
2019-03-12T16:27:50.369Z,7.50
2019-03-12T16:30:21.039Z,7.40
2019-03-12T16:32:49.480Z,7.10
2019-03-12T16:35:18.005Z,7.00
2019-03-12T16:37:46.525Z,6.80
2019-03-12T16:40:17.059Z,6.50
2019-03-12T16:42:45.516Z,6.30
2019-03-12T16:45:16.263Z,6.10
2019-03-12T16:47:44.727Z,6.00
2019-03-12T16:50:15.274Z,5.80
2019-03-12T16:52:43.787Z,5.80
2019-03-12T16:55:14.352Z,5.80
2019-03-12T16:57:43.063Z,5.60
2019-03-12T17:00:13.259Z,5.50
2019-03-12T17:02:41.772Z,5.40
2019-03-12T17:05:11.956Z,5.30
2019-03-12T17:07:40.443Z,5.20
2019-03-12T17:10:17.552Z,5.10
2019-03-12T17:12:46.162Z,4.90
2019-03-12T17:15:19.930Z,4.90
2019-03-12T17:17:48.524Z,4.80
2019-03-12T17:20:17.420Z,4.70
2019-03-12T17:22:45.949Z,4.50
2019-03-12T17:25:14.651Z,4.30
2019-03-12T17:27:43.092Z,4.30
2019-03-12T17:30:19.711Z,4.30
2019-03-12T17:32:48.489Z,4.10
2019-03-12T17:35:25.910Z,4.00
2019-03-12T17:37:54.351Z,3.90
2019-03-12T17:40:22.923Z,3.80
2019-03-12T17:42:51.473Z,3.70
2019-03-12T17:45:20.062Z,3.60
2019-03-12T17:47:48.511Z,3.50
2019-03-12T17:50:17.115Z,3.40
2019-03-12T17:52:45.695Z,3.20
2019-03-12T17:55:16.827Z,3.20
2019-03-12T17:57:45.356Z,3.00
2019-03-12T18:00:19.806Z,2.90
2019-03-12T18:02:48.348Z,2.90
2019-03-12T18:05:16.948Z,3.00
2019-03-12T18:07:45.510Z,2.90
2019-03-12T18:10:15.522Z,2.90
2019-03-12T18:12:44.210Z,2.80
2019-03-12T18:15:20.704Z,2.80
2019-03-12T18:17:49.378Z,2.70
2019-03-12T18:20:19.231Z,2.50
2019-03-12T18:22:47.690Z,2.20
2019-03-12T18:25:30.339Z,2.10
2019-03-12T18:27:58.867Z,2.00
2019-03-12T18:30:27.387Z,1.90
2019-03-12T18:32:55.839Z,2.00
2019-03-12T18:35:24.419Z,2.10
2019-03-12T18:37:52.947Z,2.10
2019-03-12T18:40:22.946Z,2.00
2019-03-12T18:42:51.575Z,2.00
2019-03-12T18:45:25.922Z,1.90
2019-03-12T18:47:54.496Z,1.80
2019-03-12T18:50:23.087Z,1.80
2019-03-12T18:52:51.599Z,1.80
2019-03-12T18:55:32.010Z,1.70
2019-03-12T18:58:01.075Z,1.60
2019-03-12T19:00:29.679Z,1.60
2019-03-12T19:02:58.275Z,1.40
2019-03-12T19:05:28.383Z,1.30
2019-03-12T19:07:57.312Z,1.10
2019-03-12T19:10:25.898Z,1.00
2019-03-12T19:12:54.573Z,1.00
2019-03-12T19:15:23.082Z,0.80
2019-03-12T19:17:51.611Z,0.60
2019-03-12T19:20:20.671Z,0.70
2019-03-12T19:22:49.199Z,0.70
2019-03-12T19:25:19.461Z,0.90
2019-03-12T19:27:59.143Z,0.80
2019-03-12T19:30:19.256Z,0.80
2019-03-12T19:32:49.479Z,0.90
2019-03-12T19:35:20.942Z,1.00
2019-03-12T19:37:49.498Z,1.10
2019-03-12T19:40:23.947Z,1.10
2019-03-12T19:42:52.392Z,1.20
2019-03-12T19:45:20.921Z,1.10
2019-03-12T19:47:49.668Z,0.90
2019-03-12T19:50:20.092Z,0.70
2019-03-12T19:52:48.804Z,0.40
2019-03-12T19:55:41.748Z,0.30
2019-03-12T19:58:10.291Z,0.30
2019-03-12T20:00:39.472Z,0.40
2019-03-12T20:03:13.330Z,0.40
2019-03-12T20:05:38.427Z,0.50
2019-03-12T20:08:09.054Z,0.60
2019-03-12T20:11:13.839Z,0.70
2019-03-12T20:14:05.177Z,0.60
2019-03-12T20:17:09.435Z,0.30
2019-03-12T20:20:11.539Z,0.20
2019-03-12T20:23:17.404Z,0.00
2019-03-12T20:26:22.147Z,0.00
2019-03-12T20:29:18.831Z,-0.10
2019-03-12T20:32:02.556Z,-0.10
2019-03-12T20:34:56.604Z,0.00
2019-03-12T20:37:46.393Z,-0.10
2019-03-12T20:40:32.278Z,-0.20
2019-03-12T20:43:09.823Z,-0.20
2019-03-12T20:45:59.167Z,-0.20
2019-03-12T20:48:47.296Z,-0.20
2019-03-12T20:51:36.212Z,-0.20
2019-03-12T20:54:29.231Z,-0.20
2019-03-12T20:57:17.154Z,-0.30
2019-03-12T21:00:22.075Z,-0.40
2019-03-12T21:03:02.520Z,-0.40
2019-03-12T21:05:45.943Z,-0.50
2019-03-12T21:08:17.479Z,-0.40
2019-03-12T21:11:07.059Z,-0.30
2019-03-12T21:14:04.152Z,-0.30
2019-03-12T21:17:04.612Z,-0.30
2019-03-12T21:19:59.070Z,-0.40
2019-03-12T21:22:51.842Z,-0.50
2019-03-12T21:25:42.787Z,-0.60
2019-03-12T21:28:26.491Z,-0.60
2019-03-12T21:30:55.026Z,-0.60
2019-03-12T21:33:23.621Z,-0.70
2019-03-12T21:35:52.900Z,-0.70
2019-03-12T21:38:21.495Z,-0.70
2019-03-12T21:40:50.087Z,-0.60
2019-03-12T21:43:18.554Z,-0.60
2019-03-12T21:45:47.160Z,-0.60
2019-03-12T21:48:15.675Z,-0.70
2019-03-12T21:50:44.141Z,-0.70
2019-03-12T21:53:12.670Z,-0.70
2019-03-12T21:55:41.208Z,-0.70
2019-03-12T21:58:09.743Z,-0.90
2019-03-12T22:00:38.191Z,-0.90
2019-03-12T22:03:06.741Z,-1.00
2019-03-12T22:05:35.188Z,-1.00
2019-03-12T22:08:03.646Z,-1.00
2019-03-12T22:10:32.179Z,-1.00
2019-03-12T22:13:00.637Z,-1.10
2019-03-12T22:15:29.846Z,-1.00
2019-03-12T22:17:58.755Z,-1.00
2019-03-12T22:20:27.208Z,-1.00
2019-03-12T22:23:15.472Z,-1.10
2019-03-12T22:25:43.920Z,-1.10
2019-03-12T22:28:12.389Z,-1.00
2019-03-12T22:30:40.832Z,-1.20
2019-03-12T22:33:09.371Z,-1.20
2019-03-12T22:35:37.819Z,-1.20
2019-03-12T22:38:06.418Z,-1.10
2019-03-12T22:40:34.865Z,-1.10
2019-03-12T22:43:03.398Z,-1.10
2019-03-12T22:45:31.882Z,-1.20
2019-03-12T22:48:00.411Z,-1.10
2019-03-12T22:50:28.878Z,-1.20
2019-03-12T22:52:57.412Z,-1.10
2019-03-12T22:55:25.944Z,-1.10
2019-03-12T22:57:54.409Z,-1.00
2019-03-12T23:00:22.870Z,-1.00
2019-03-12T23:02:51.343Z,-1.00
2019-03-12T23:05:19.816Z,-1.10
2019-03-12T23:07:48.336Z,-1.10
2019-03-12T23:10:17.308Z,-1.10
2019-03-12T23:12:45.915Z,-1.00
2019-03-12T23:15:16.493Z,-1.00
2019-03-12T23:17:45.027Z,-1.00
2019-03-12T23:20:19.164Z,-0.90
2019-03-12T23:22:47.619Z,-0.90
2019-03-12T23:25:16.199Z,-0.80
2019-03-12T23:27:44.808Z,-0.80
2019-03-12T23:30:16.424Z,-0.80
2019-03-12T23:32:45.003Z,-0.70
2019-03-12T23:35:13.608Z,-0.80
2019-03-12T23:37:42.201Z,-0.80
2019-03-12T23:40:15.443Z,-0.80
2019-03-12T23:42:44.027Z,-0.80
2019-03-12T23:45:13.911Z,-0.90
2019-03-12T23:47:42.464Z,-1.00
2019-03-12T23:50:12.918Z,-1.00
2019-03-12T23:52:41.518Z,-1.10
2019-03-12T23:55:11.999Z,-1.00
2019-03-12T23:57:40.531Z,-1.00
